TimeCST,TemperatureF,Dew PointF,Humidity,Sea Level PressureIn,VisibilityMPH,Wind Direction,Wind SpeedMPH,Gust SpeedMPH,PrecipitationIn,Events,Conditions,WindDirDegrees,DateUTC
12:15 AM,30.2,24.8,80,29.99,10.0,ESE,5.8,-,N/A,,Clear,120,2013-02-06 06:15:00
12:35 AM,32.0,26.6,80,29.99,10.0,ESE,4.6,-,N/A,,Clear,120,2013-02-06 06:35:00
1:15 AM,30.2,26.6,86,29.98,10.0,Calm,Calm,-,N/A,,Clear,0,2013-02-06 07:15:00
1:35 AM,30.2,24.8,80,29.97,10.0,SE,3.5,-,N/A,,Clear,140,2013-02-06 07:35:00
1:55 AM,30.2,26.6,86,29.97,10.0,Calm,Calm,-,N/A,,Clear,0,2013-02-06 07:55:00
2:15 AM,30.2,26.6,86,29.97,10.0,Calm,Calm,-,N/A,,Clear,0,2013-02-06 08:15:00
2:35 AM,30.2,24.8,80,29.96,10.0,ESE,3.5,-,N/A,,Clear,120,2013-02-06 08:35:00
2:55 AM,32.0,24.8,75,29.95,10.0,ESE,5.8,-,N/A,,Clear,120,2013-02-06 08:55:00
3:15 AM,32.0,24.8,75,29.95,10.0,SE,4.6,-,N/A,,Clear,130,2013-02-06 09:15:00
3:35 AM,30.2,23.0,75,29.95,10.0,Calm,Calm,-,N/A,,Clear,0,2013-02-06 09:35:00
3:55 AM,28.4,24.8,86,29.94,10.0,Calm,Calm,-,N/A,,Clear,0,2013-02-06 09:55:00
4:15 AM,30.2,24.8,80,29.94,10.0,SSE,3.5,-,N/A,,Clear,160,2013-02-06 10:15:00
4:35 AM,30.2,24.8,80,29.94,10.0,SSE,3.5,-,N/A,,Clear,160,2013-02-06 10:35:00
4:55 AM,30.2,24.8,80,29.94,10.0,South,4.6,-,N/A,,Clear,180,2013-02-06 10:55:00
5:15 AM,32.0,24.8,75,29.94,10.0,South,4.6,-,N/A,,Clear,170,2013-02-06 11:15:00
5:35 AM,32.0,24.8,75,29.94,10.0,South,3.5,-,N/A,,Clear,170,2013-02-06 11:35:00
5:55 AM,32.0,24.8,75,29.93,10.0,South,4.6,-,N/A,,Clear,190,2013-02-06 11:55:00
6:15 AM,32.0,24.8,75,29.93,10.0,Calm,Calm,-,N/A,,Clear,0,2013-02-06 12:15:00
6:35 AM,33.8,24.8,70,29.93,10.0,South,4.6,-,N/A,,Clear,180,2013-02-06 12:35:00
6:55 AM,28.4,21.2,74,29.92,10.0,SSE,3.5,-,N/A,,Clear,150,2013-02-06 12:55:00
7:35 AM,28.4,19.4,69,29.91,10.0,SSE,4.6,-,N/A,,Clear,160,2013-02-06 13:35:00
7:55 AM,26.6,21.2,80,29.91,10.0,SSE,5.8,-,N/A,,Clear,150,2013-02-06 13:55:00
8:15 AM,28.4,24.8,86,29.90,10.0,SSE,9.2,-,N/A,,Clear,150,2013-02-06 14:15:00
8:35 AM,33.8,26.6,75,29.91,10.0,SSE,9.2,-,N/A,,Clear,150,2013-02-06 14:35:00
8:55 AM,33.8,26.6,75,29.91,10.0,SSE,5.8,-,N/A,,Scattered Clouds,160,2013-02-06 14:55:00
9:15 AM,35.6,28.4,75,29.92,10.0,ESE,3.5,-,N/A,,Overcast,120,2013-02-06 15:15:00
9:35 AM,37.4,30.2,75,29.91,10.0,South,4.6,-,N/A,,Overcast,170,2013-02-06 15:35:00
9:55 AM,39.2,35.6,87,29.92,10.0,South,11.5,-,N/A,,Overcast,190,2013-02-06 15:55:00
10:35 AM,42.8,37.4,81,29.91,8.0,SSW,11.5,-,N/A,,Overcast,200,2013-02-06 16:35:00
10:55 AM,44.6,39.2,81,29.90,9.0,SSW,10.4,-,N/A,,Overcast,200,2013-02-06 16:55:00
11:15 AM,44.6,41.0,87,29.89,9.0,SSW,15.0,18.4,N/A,,Overcast,200,2013-02-06 17:15:00
11:35 AM,48.2,41.0,76,29.88,10.0,South,18.4,25.3,N/A,,Overcast,190,2013-02-06 17:35:00
11:55 AM,48.2,42.8,82,29.86,10.0,South,21.9,26.5,N/A,,Overcast,190,2013-02-06 17:55:00
12:15 PM,51.8,42.8,71,29.85,10.0,South,23.0,29.9,N/A,,Overcast,190,2013-02-06 18:15:00
12:35 PM,53.6,42.8,67,29.84,10.0,SSW,20.7,27.6,N/A,,Overcast,200,2013-02-06 18:35:00
12:55 PM,53.6,42.8,67,29.83,10.0,South,18.4,23.0,N/A,,Mostly Cloudy,190,2013-02-06 18:55:00
1:15 PM,55.4,42.8,63,29.81,10.0,South,16.1,24.2,N/A,,Partly Cloudy,190,2013-02-06 19:15:00
1:35 PM,57.2,42.8,59,29.80,10.0,SSW,17.3,21.9,N/A,,Clear,210,2013-02-06 19:35:00
1:55 PM,57.2,42.8,59,29.79,10.0,SSW,18.4,24.2,N/A,,Clear,200,2013-02-06 19:55:00
2:15 PM,59.0,42.8,55,29.76,10.0,South,19.6,24.2,N/A,,Clear,190,2013-02-06 20:15:00
2:35 PM,60.8,42.8,52,29.75,10.0,South,24.2,29.9,N/A,,Clear,190,2013-02-06 20:35:00
2:55 PM,60.8,42.8,52,29.75,10.0,South,21.9,29.9,N/A,,Clear,190,2013-02-06 20:55:00
3:15 PM,60.8,42.8,52,29.75,10.0,South,20.7,29.9,N/A,,Clear,180,2013-02-06 21:15:00
3:35 PM,62.6,42.8,48,29.75,10.0,South,15.0,-,N/A,,Clear,190,2013-02-06 21:35:00
3:55 PM,60.8,42.8,52,29.74,10.0,South,17.3,-,N/A,,Clear,190,2013-02-06 21:55:00
4:15 PM,62.6,42.8,48,29.73,10.0,South,18.4,24.2,N/A,,Clear,180,2013-02-06 22:15:00
4:35 PM,62.6,44.6,52,29.73,10.0,South,17.3,-,N/A,,Clear,190,2013-02-06 22:35:00
4:55 PM,62.6,44.6,52,29.74,10.0,South,16.1,-,N/A,,Clear,190,2013-02-06 22:55:00
5:15 PM,60.8,44.6,55,29.74,10.0,South,13.8,-,N/A,,Clear,170,2013-02-06 23:15:00
5:35 PM,57.2,44.6,63,29.75,10.0,SSE,11.5,18.4,N/A,,Clear,160,2013-02-06 23:35:00
5:55 PM,55.4,44.6,67,29.76,10.0,SSE,11.5,-,N/A,,Clear,150,2013-02-06 23:55:00
6:15 PM,53.6,42.8,67,29.77,10.0,SSE,9.2,-,N/A,,Clear,150,2013-02-07 00:15:00
6:35 PM,51.8,42.8,71,29.78,10.0,SE,9.2,-,N/A,,Clear,140,2013-02-07 00:35:00
6:55 PM,48.2,42.8,82,29.78,10.0,SE,11.5,-,N/A,,Clear,140,2013-02-07 00:55:00
7:15 PM,48.2,44.6,87,29.79,10.0,SSE,10.4,-,N/A,,Scattered Clouds,150,2013-02-07 01:15:00
7:35 PM,48.2,42.8,82,29.79,10.0,ESE,9.2,-,N/A,,Partly Cloudy,120,2013-02-07 01:35:00
7:55 PM,46.4,42.8,87,29.80,9.0,SE,8.1,-,N/A,,Clear,130,2013-02-07 01:55:00
8:15 PM,46.4,42.8,87,29.80,7.0,ESE,6.9,-,N/A,,Clear,120,2013-02-07 02:15:00
8:35 PM,44.6,41.0,87,29.80,5.0,ESE,8.1,-,N/A,,Clear,120,2013-02-07 02:35:00
8:55 PM,42.8,41.0,93,29.80,4.0,ESE,8.1,-,N/A,,Clear,120,2013-02-07 02:55:00
9:15 PM,42.8,41.0,93,29.80,2.5,SE,8.1,-,N/A,,Clear,130,2013-02-07 03:15:00
9:35 PM,42.8,39.2,87,29.81,0.5,ESE,4.6,-,N/A,,Mostly Cloudy,120,2013-02-07 03:35:00
9:55 PM,41.0,39.2,93,29.82,0.2,Calm,Calm,-,N/A,,Overcast,0,2013-02-07 03:55:00
10:15 PM,39.2,39.2,100,29.82,0.2,Calm,Calm,-,N/A,,Overcast,0,2013-02-07 04:15:00
10:35 PM,39.2,37.4,93,29.83,0.2,Calm,Calm,-,N/A,,Overcast,0,2013-02-07 04:35:00
10:55 PM,39.2,37.4,93,29.83,0.2,Calm,Calm,-,N/A,,Overcast,0,2013-02-07 04:55:00
11:15 PM,41.0,39.2,93,29.83,0.2,ENE,3.5,-,N/A,,Overcast,70,2013-02-07 05:15:00
11:35 PM,42.8,41.0,93,29.84,0.5,WNW,5.8,-,N/A,,Overcast,300,2013-02-07 05:35:00
11:55 PM,42.8,41.0,93,29.85,0.5,NNW,4.6,-,N/A,,Overcast,330,2013-02-07 05:55:00